sensor_id;sensor_type;location;lat;lon;timestamp;P1;durP1;ratioP1;P2;durP2;ratioP2
25359;SDS011;13311;51.386;0.016;2023-01-28T00:02:41;20.10;;;8.63;;
25359;SDS011;13311;51.386;0.016;2023-01-28T00:07:41;16.35;;;8.50;;
25359;SDS011;13311;51.386;0.016;2023-01-28T00:12:42;15.77;;;6.85;;
25359;SDS011;13311;51.386;0.016;2023-01-28T00:17:43;16.15;;;7.60;;
25359;SDS011;13311;51.386;0.016;2023-01-28T00:22:47;18.98;;;7.78;;
25359;SDS011;13311;51.386;0.016;2023-01-28T00:27:48;18.92;;;7.10;;
25359;SDS011;13311;51.386;0.016;2023-01-28T00:32:49;16.85;;;7.47;;
25359;SDS011;13311;51.386;0.016;2023-01-28T00:37:50;17.30;;;7.95;;
25359;SDS011;13311;51.386;0.016;2023-01-28T00:42:51;16.10;;;7.63;;
25359;SDS011;13311;51.386;0.016;2023-01-28T00:47:51;15.65;;;7.70;;
25359;SDS011;13311;51.386;0.016;2023-01-28T00:52:52;14.23;;;7.70;;
25359;SDS011;13311;51.386;0.016;2023-01-28T00:57:53;20.15;;;8.15;;
25359;SDS011;13311;51.386;0.016;2023-01-28T01:02:54;17.10;;;7.55;;
25359;SDS011;13311;51.386;0.016;2023-01-28T01:07:54;18.65;;;7.88;;
25359;SDS011;13311;51.386;0.016;2023-01-28T01:12:55;20.13;;;9.05;;
25359;SDS011;13311;51.386;0.016;2023-01-28T01:17:57;15.52;;;7.65;;
25359;SDS011;13311;51.386;0.016;2023-01-28T01:22:58;15.05;;;8.52;;
25359;SDS011;13311;51.386;0.016;2023-01-28T01:27:58;20.85;;;8.48;;
25359;SDS011;13311;51.386;0.016;2023-01-28T01:32:59;14.63;;;7.95;;
25359;SDS011;13311;51.386;0.016;2023-01-28T01:38:00;15.50;;;7.93;;
25359;SDS011;13311;51.386;0.016;2023-01-28T01:43:01;16.00;;;8.07;;
25359;SDS011;13311;51.386;0.016;2023-01-28T01:48:03;18.50;;;8.15;;
25359;SDS011;13311;51.386;0.016;2023-01-28T01:53:13;18.75;;;8.93;;
25359;SDS011;13311;51.386;0.016;2023-01-28T01:58:18;16.95;;;8.25;;
25359;SDS011;13311;51.386;0.016;2023-01-28T02:03:26;16.20;;;8.02;;
25359;SDS011;13311;51.386;0.016;2023-01-28T02:08:33;18.75;;;8.40;;
25359;SDS011;13311;51.386;0.016;2023-01-28T02:13:38;15.45;;;8.35;;
25359;SDS011;13311;51.386;0.016;2023-01-28T02:18:43;13.48;;;7.63;;
25359;SDS011;13311;51.386;0.016;2023-01-28T02:29:32;21.00;;;9.52;;
25359;SDS011;13311;51.386;0.016;2023-01-28T02:40:11;18.42;;;9.13;;
25359;SDS011;13311;51.386;0.016;2023-01-28T02:45:21;16.07;;;8.57;;
25359;SDS011;13311;51.386;0.016;2023-01-28T02:50:51;17.88;;;8.73;;
25359;SDS011;13311;51.386;0.016;2023-01-28T02:56:19;19.02;;;8.43;;
25359;SDS011;13311;51.386;0.016;2023-01-28T03:01:34;12.20;;;7.82;;
25359;SDS011;13311;51.386;0.016;2023-01-28T03:06:43;15.13;;;8.57;;
25359;SDS011;13311;51.386;0.016;2023-01-28T03:11:50;24.30;;;8.30;;
25359;SDS011;13311;51.386;0.016;2023-01-28T03:23:08;20.00;;;8.10;;
25359;SDS011;13311;51.386;0.016;2023-01-28T03:28:32;16.27;;;8.68;;
25359;SDS011;13311;51.386;0.016;2023-01-28T03:33:57;13.50;;;7.85;;
25359;SDS011;13311;51.386;0.016;2023-01-28T03:39:18;15.45;;;7.05;;
25359;SDS011;13311;51.386;0.016;2023-01-28T03:44:26;14.27;;;7.18;;
25359;SDS011;13311;51.386;0.016;2023-01-28T03:49:47;11.80;;;6.43;;
25359;SDS011;13311;51.386;0.016;2023-01-28T03:54:49;15.82;;;6.85;;
25359;SDS011;13311;51.386;0.016;2023-01-28T03:59:52;15.13;;;5.70;;
25359;SDS011;13311;51.386;0.016;2023-01-28T04:04:53;10.52;;;5.07;;
25359;SDS011;13311;51.386;0.016;2023-01-28T04:09:54;8.15;;;3.70;;
25359;SDS011;13311;51.386;0.016;2023-01-28T04:14:55;7.82;;;3.55;;
25359;SDS011;13311;51.386;0.016;2023-01-28T04:19:56;8.43;;;3.58;;
25359;SDS011;13311;51.386;0.016;2023-01-28T04:24:56;10.00;;;3.78;;
25359;SDS011;13311;51.386;0.016;2023-01-28T04:29:57;7.47;;;3.03;;
25359;SDS011;13311;51.386;0.016;2023-01-28T04:34:58;12.57;;;3.25;;
25359;SDS011;13311;51.386;0.016;2023-01-28T04:39:58;6.78;;;2.83;;
25359;SDS011;13311;51.386;0.016;2023-01-28T04:44:59;9.70;;;2.97;;
25359;SDS011;13311;51.386;0.016;2023-01-28T04:50:00;7.95;;;3.00;;
25359;SDS011;13311;51.386;0.016;2023-01-28T04:55:01;6.35;;;2.40;;
25359;SDS011;13311;51.386;0.016;2023-01-28T05:00:05;7.72;;;3.13;;
25359;SDS011;13311;51.386;0.016;2023-01-28T05:05:07;3.85;;;1.92;;
25359;SDS011;13311;51.386;0.016;2023-01-28T05:10:08;6.45;;;2.65;;
25359;SDS011;13311;51.386;0.016;2023-01-28T05:15:09;11.02;;;2.88;;
25359;SDS011;13311;51.386;0.016;2023-01-28T05:20:11;7.75;;;2.05;;
25359;SDS011;13311;51.386;0.016;2023-01-28T05:25:14;5.68;;;2.05;;
25359;SDS011;13311;51.386;0.016;2023-01-28T05:30:15;10.10;;;2.65;;
25359;SDS011;13311;51.386;0.016;2023-01-28T05:35:17;7.38;;;2.25;;
25359;SDS011;13311;51.386;0.016;2023-01-28T05:40:17;5.63;;;2.30;;
25359;SDS011;13311;51.386;0.016;2023-01-28T05:45:18;8.40;;;2.75;;
25359;SDS011;13311;51.386;0.016;2023-01-28T05:50:19;6.90;;;2.97;;
25359;SDS011;13311;51.386;0.016;2023-01-28T05:55:20;4.80;;;2.85;;
25359;SDS011;13311;51.386;0.016;2023-01-28T06:00:21;8.02;;;3.55;;
25359;SDS011;13311;51.386;0.016;2023-01-28T06:05:21;7.55;;;3.30;;
25359;SDS011;13311;51.386;0.016;2023-01-28T06:10:22;7.63;;;3.42;;
25359;SDS011;13311;51.386;0.016;2023-01-28T06:15:23;6.28;;;3.95;;
25359;SDS011;13311;51.386;0.016;2023-01-28T06:20:24;7.40;;;3.80;;
25359;SDS011;13311;51.386;0.016;2023-01-28T06:25:24;14.48;;;4.32;;
25359;SDS011;13311;51.386;0.016;2023-01-28T06:30:25;6.82;;;3.70;;
25359;SDS011;13311;51.386;0.016;2023-01-28T06:35:26;7.95;;;3.75;;
25359;SDS011;13311;51.386;0.016;2023-01-28T06:40:27;10.45;;;4.28;;
25359;SDS011;13311;51.386;0.016;2023-01-28T06:45:28;6.80;;;4.82;;
25359;SDS011;13311;51.386;0.016;2023-01-28T06:50:28;7.15;;;4.00;;
25359;SDS011;13311;51.386;0.016;2023-01-28T06:55:29;11.55;;;3.95;;
25359;SDS011;13311;51.386;0.016;2023-01-28T07:00:30;10.25;;;4.13;;
25359;SDS011;13311;51.386;0.016;2023-01-28T07:05:30;11.40;;;4.15;;
25359;SDS011;13311;51.386;0.016;2023-01-28T07:10:31;8.73;;;5.05;;
25359;SDS011;13311;51.386;0.016;2023-01-28T07:15:32;11.50;;;5.03;;
25359;SDS011;13311;51.386;0.016;2023-01-28T07:20:32;10.88;;;4.97;;
25359;SDS011;13311;51.386;0.016;2023-01-28T07:25:33;10.77;;;3.78;;
25359;SDS011;13311;51.386;0.016;2023-01-28T07:30:34;7.40;;;4.07;;
25359;SDS011;13311;51.386;0.016;2023-01-28T07:35:35;10.57;;;4.35;;
25359;SDS011;13311;51.386;0.016;2023-01-28T07:40:35;9.77;;;4.25;;
25359;SDS011;13311;51.386;0.016;2023-01-28T07:45:36;8.98;;;3.75;;
25359;SDS011;13311;51.386;0.016;2023-01-28T07:50:37;9.98;;;4.13;;
25359;SDS011;13311;51.386;0.016;2023-01-28T07:55:39;9.13;;;4.45;;
25359;SDS011;13311;51.386;0.016;2023-01-28T08:00:40;5.68;;;3.75;;
25359;SDS011;13311;51.386;0.016;2023-01-28T08:05:47;7.28;;;4.35;;
25359;SDS011;13311;51.386;0.016;2023-01-28T08:10:50;11.88;;;4.35;;
25359;SDS011;13311;51.386;0.016;2023-01-28T08:15:53;12.05;;;4.10;;
25359;SDS011;13311;51.386;0.016;2023-01-28T08:20:56;11.55;;;5.60;;
25359;SDS011;13311;51.386;0.016;2023-01-28T08:25:58;11.35;;;5.53;;
25359;SDS011;13311;51.386;0.016;2023-01-28T08:30:59;15.50;;;6.80;;
25359;SDS011;13311;51.386;0.016;2023-01-28T08:36:01;10.52;;;5.78;;
25359;SDS011;13311;51.386;0.016;2023-01-28T08:41:03;12.55;;;6.25;;
25359;SDS011;13311;51.386;0.016;2023-01-28T08:46:05;11.52;;;5.60;;
25359;SDS011;13311;51.386;0.016;2023-01-28T08:51:06;12.90;;;6.97;;
25359;SDS011;13311;51.386;0.016;2023-01-28T08:56:07;11.20;;;6.30;;
25359;SDS011;13311;51.386;0.016;2023-01-28T09:01:08;20.88;;;7.80;;
25359;SDS011;13311;51.386;0.016;2023-01-28T09:06:09;11.05;;;6.88;;
25359;SDS011;13311;51.386;0.016;2023-01-28T09:11:10;13.93;;;6.22;;
25359;SDS011;13311;51.386;0.016;2023-01-28T09:16:10;17.42;;;6.95;;
25359;SDS011;13311;51.386;0.016;2023-01-28T09:21:11;11.65;;;6.43;;
25359;SDS011;13311;51.386;0.016;2023-01-28T09:26:12;13.07;;;6.82;;
25359;SDS011;13311;51.386;0.016;2023-01-28T09:31:13;10.77;;;6.35;;
25359;SDS011;13311;51.386;0.016;2023-01-28T09:36:14;12.70;;;7.45;;
25359;SDS011;13311;51.386;0.016;2023-01-28T09:41:37;12.50;;;8.05;;
25359;SDS011;13311;51.386;0.016;2023-01-28T09:47:00;12.05;;;8.40;;
25359;SDS011;13311;51.386;0.016;2023-01-28T09:52:03;9.10;;;7.18;;
25359;SDS011;13311;51.386;0.016;2023-01-28T09:57:12;17.50;;;7.47;;
25359;SDS011;13311;51.386;0.016;2023-01-28T10:13:28;18.83;;;7.07;;
25359;SDS011;13311;51.386;0.016;2023-01-28T10:19:06;10.20;;;6.43;;
25359;SDS011;13311;51.386;0.016;2023-01-28T10:29:34;12.50;;;6.38;;
25359;SDS011;13311;51.386;0.016;2023-01-28T10:34:38;18.48;;;7.90;;
25359;SDS011;13311;51.386;0.016;2023-01-28T10:39:39;11.93;;;7.47;;
25359;SDS011;13311;51.386;0.016;2023-01-28T10:44:41;22.23;;;7.53;;
25359;SDS011;13311;51.386;0.016;2023-01-28T10:49:45;15.23;;;7.57;;
25359;SDS011;13311;51.386;0.016;2023-01-28T10:55:01;23.73;;;8.68;;
25359;SDS011;13311;51.386;0.016;2023-01-28T11:00:21;16.80;;;7.75;;
25359;SDS011;13311;51.386;0.016;2023-01-28T11:05:28;15.10;;;6.85;;
25359;SDS011;13311;51.386;0.016;2023-01-28T11:10:32;18.10;;;7.70;;
25359;SDS011;13311;51.386;0.016;2023-01-28T11:15:35;14.50;;;7.20;;
25359;SDS011;13311;51.386;0.016;2023-01-28T11:21:13;10.23;;;7.35;;
25359;SDS011;13311;51.386;0.016;2023-01-28T11:26:25;14.05;;;7.28;;
25359;SDS011;13311;51.386;0.016;2023-01-28T11:31:36;13.02;;;7.00;;
25359;SDS011;13311;51.386;0.016;2023-01-28T11:36:49;9.65;;;6.80;;
25359;SDS011;13311;51.386;0.016;2023-01-28T11:41:52;13.23;;;5.78;;
25359;SDS011;13311;51.386;0.016;2023-01-28T11:57:25;12.90;;;7.53;;
25359;SDS011;13311;51.386;0.016;2023-01-28T12:02:51;14.65;;;9.35;;
25359;SDS011;13311;51.386;0.016;2023-01-28T12:08:28;21.13;;;11.23;;
25359;SDS011;13311;51.386;0.016;2023-01-28T12:24:34;24.33;;;12.63;;
25359;SDS011;13311;51.386;0.016;2023-01-28T12:45:58;15.27;;;10.60;;
25359;SDS011;13311;51.386;0.016;2023-01-28T12:51:06;16.42;;;9.93;;
25359;SDS011;13311;51.386;0.016;2023-01-28T12:56:20;16.33;;;8.77;;
25359;SDS011;13311;51.386;0.016;2023-01-28T13:07:14;16.50;;;10.10;;
25359;SDS011;13311;51.386;0.016;2023-01-28T13:12:25;16.80;;;9.70;;
25359;SDS011;13311;51.386;0.016;2023-01-28T13:17:27;13.48;;;9.02;;
25359;SDS011;13311;51.386;0.016;2023-01-28T13:22:31;15.80;;;8.50;;
25359;SDS011;13311;51.386;0.016;2023-01-28T13:27:34;13.88;;;8.80;;
25359;SDS011;13311;51.386;0.016;2023-01-28T13:32:35;12.70;;;8.65;;
25359;SDS011;13311;51.386;0.016;2023-01-28T13:37:42;15.25;;;9.60;;
25359;SDS011;13311;51.386;0.016;2023-01-28T13:42:44;12.75;;;9.63;;
25359;SDS011;13311;51.386;0.016;2023-01-28T14:15:40;18.27;;;10.50;;
25359;SDS011;13311;51.386;0.016;2023-01-28T14:20:51;15.68;;;10.25;;
25359;SDS011;13311;51.386;0.016;2023-01-28T14:31:33;15.25;;;10.07;;
25359;SDS011;13311;51.386;0.016;2023-01-28T14:36:39;19.70;;;11.02;;
25359;SDS011;13311;51.386;0.016;2023-01-28T14:41:43;13.50;;;9.18;;
25359;SDS011;13311;51.386;0.016;2023-01-28T14:46:55;18.92;;;11.23;;
25359;SDS011;13311;51.386;0.016;2023-01-28T14:52:42;14.25;;;10.65;;
25359;SDS011;13311;51.386;0.016;2023-01-28T14:57:50;15.88;;;10.63;;
25359;SDS011;13311;51.386;0.016;2023-01-28T15:03:10;18.25;;;10.27;;
25359;SDS011;13311;51.386;0.016;2023-01-28T15:08:20;13.55;;;10.10;;
25359;SDS011;13311;51.386;0.016;2023-01-28T15:13:28;16.27;;;9.00;;
25359;SDS011;13311;51.386;0.016;2023-01-28T15:18:36;15.30;;;9.32;;
25359;SDS011;13311;51.386;0.016;2023-01-28T15:23:41;15.43;;;8.57;;
25359;SDS011;13311;51.386;0.016;2023-01-28T15:28:43;13.57;;;9.40;;
25359;SDS011;13311;51.386;0.016;2023-01-28T15:33:54;14.38;;;10.55;;
25359;SDS011;13311;51.386;0.016;2023-01-28T15:39:21;14.13;;;10.20;;
25359;SDS011;13311;51.386;0.016;2023-01-28T15:49:33;13.38;;;9.45;;
25359;SDS011;13311;51.386;0.016;2023-01-28T15:54:37;16.50;;;11.23;;
25359;SDS011;13311;51.386;0.016;2023-01-28T15:59:40;12.77;;;8.45;;
25359;SDS011;13311;51.386;0.016;2023-01-28T16:04:57;14.77;;;9.38;;
25359;SDS011;13311;51.386;0.016;2023-01-28T16:10:00;16.13;;;10.27;;
25359;SDS011;13311;51.386;0.016;2023-01-28T16:15:02;18.02;;;11.20;;
25359;SDS011;13311;51.386;0.016;2023-01-28T16:20:06;23.08;;;11.00;;
25359;SDS011;13311;51.386;0.016;2023-01-28T16:30:31;17.10;;;10.38;;
25359;SDS011;13311;51.386;0.016;2023-01-28T16:35:32;13.52;;;9.65;;
25359;SDS011;13311;51.386;0.016;2023-01-28T16:40:33;14.77;;;10.20;;
25359;SDS011;13311;51.386;0.016;2023-01-28T16:45:37;15.88;;;10.30;;
25359;SDS011;13311;51.386;0.016;2023-01-28T16:50:38;15.80;;;10.32;;
25359;SDS011;13311;51.386;0.016;2023-01-28T16:55:41;15.70;;;10.15;;
25359;SDS011;13311;51.386;0.016;2023-01-28T17:00:42;17.27;;;10.38;;
25359;SDS011;13311;51.386;0.016;2023-01-28T17:05:42;15.40;;;9.80;;
25359;SDS011;13311;51.386;0.016;2023-01-28T17:10:43;19.42;;;10.30;;
25359;SDS011;13311;51.386;0.016;2023-01-28T17:15:44;18.40;;;11.15;;
25359;SDS011;13311;51.386;0.016;2023-01-28T17:20:45;17.70;;;12.55;;
25359;SDS011;13311;51.386;0.016;2023-01-28T17:25:46;22.42;;;13.10;;
25359;SDS011;13311;51.386;0.016;2023-01-28T17:30:47;24.27;;;11.60;;
25359;SDS011;13311;51.386;0.016;2023-01-28T17:35:47;18.17;;;11.77;;
25359;SDS011;13311;51.386;0.016;2023-01-28T17:40:48;18.92;;;11.75;;
25359;SDS011;13311;51.386;0.016;2023-01-28T17:45:49;18.27;;;12.90;;
25359;SDS011;13311;51.386;0.016;2023-01-28T17:50:54;21.27;;;12.75;;
25359;SDS011;13311;51.386;0.016;2023-01-28T17:55:56;16.33;;;11.18;;
25359;SDS011;13311;51.386;0.016;2023-01-28T18:00:57;18.90;;;11.95;;
25359;SDS011;13311;51.386;0.016;2023-01-28T18:05:58;18.33;;;10.73;;
25359;SDS011;13311;51.386;0.016;2023-01-28T18:10:59;21.10;;;12.48;;
25359;SDS011;13311;51.386;0.016;2023-01-28T18:16:02;18.05;;;11.68;;
25359;SDS011;13311;51.386;0.016;2023-01-28T18:21:04;21.95;;;12.18;;
25359;SDS011;13311;51.386;0.016;2023-01-28T18:26:06;17.07;;;11.27;;
25359;SDS011;13311;51.386;0.016;2023-01-28T18:31:07;24.50;;;12.55;;
25359;SDS011;13311;51.386;0.016;2023-01-28T18:36:08;20.15;;;13.93;;
25359;SDS011;13311;51.386;0.016;2023-01-28T18:41:09;15.32;;;10.20;;
25359;SDS011;13311;51.386;0.016;2023-01-28T18:46:14;11.90;;;8.18;;
25359;SDS011;13311;51.386;0.016;2023-01-28T18:51:17;13.57;;;7.93;;
25359;SDS011;13311;51.386;0.016;2023-01-28T18:56:18;16.90;;;9.38;;
25359;SDS011;13311;51.386;0.016;2023-01-28T19:01:22;19.92;;;9.55;;
25359;SDS011;13311;51.386;0.016;2023-01-28T19:06:23;16.73;;;9.98;;
25359;SDS011;13311;51.386;0.016;2023-01-28T19:11:27;14.35;;;9.60;;
25359;SDS011;13311;51.386;0.016;2023-01-28T19:16:29;18.00;;;11.15;;
25359;SDS011;13311;51.386;0.016;2023-01-28T19:21:30;16.50;;;10.32;;
25359;SDS011;13311;51.386;0.016;2023-01-28T19:26:33;14.32;;;10.88;;
25359;SDS011;13311;51.386;0.016;2023-01-28T19:31:35;17.65;;;12.18;;
25359;SDS011;13311;51.386;0.016;2023-01-28T19:36:37;21.10;;;11.75;;
25359;SDS011;13311;51.386;0.016;2023-01-28T19:41:38;18.27;;;12.20;;
25359;SDS011;13311;51.386;0.016;2023-01-28T19:46:39;15.10;;;12.07;;
25359;SDS011;13311;51.386;0.016;2023-01-28T19:51:40;16.05;;;11.45;;
25359;SDS011;13311;51.386;0.016;2023-01-28T19:56:41;17.80;;;12.35;;
25359;SDS011;13311;51.386;0.016;2023-01-28T20:01:41;17.98;;;12.13;;
25359;SDS011;13311;51.386;0.016;2023-01-28T20:06:42;20.42;;;13.15;;
25359;SDS011;13311;51.386;0.016;2023-01-28T20:11:43;23.75;;;14.05;;
25359;SDS011;13311;51.386;0.016;2023-01-28T20:16:44;20.25;;;14.02;;
25359;SDS011;13311;51.386;0.016;2023-01-28T20:21:45;19.42;;;12.82;;
25359;SDS011;13311;51.386;0.016;2023-01-28T20:26:49;24.17;;;13.00;;
25359;SDS011;13311;51.386;0.016;2023-01-28T20:31:50;18.98;;;12.13;;
25359;SDS011;13311;51.386;0.016;2023-01-28T20:36:51;18.60;;;12.45;;
25359;SDS011;13311;51.386;0.016;2023-01-28T20:41:51;20.73;;;14.18;;
25359;SDS011;13311;51.386;0.016;2023-01-28T20:46:52;19.08;;;13.15;;
25359;SDS011;13311;51.386;0.016;2023-01-28T20:51:53;12.63;;;8.65;;
25359;SDS011;13311;51.386;0.016;2023-01-28T20:56:55;9.10;;;6.53;;
25359;SDS011;13311;51.386;0.016;2023-01-28T21:01:56;14.10;;;8.95;;
25359;SDS011;13311;51.386;0.016;2023-01-28T21:06:57;13.18;;;8.57;;
25359;SDS011;13311;51.386;0.016;2023-01-28T21:11:57;12.18;;;8.88;;
25359;SDS011;13311;51.386;0.016;2023-01-28T21:16:58;13.98;;;8.32;;
25359;SDS011;13311;51.386;0.016;2023-01-28T21:21:59;15.82;;;9.60;;
25359;SDS011;13311;51.386;0.016;2023-01-28T21:27:00;12.38;;;7.95;;
25359;SDS011;13311;51.386;0.016;2023-01-28T21:32:00;13.88;;;8.40;;
25359;SDS011;13311;51.386;0.016;2023-01-28T21:37:01;11.15;;;8.07;;
25359;SDS011;13311;51.386;0.016;2023-01-28T21:42:02;10.60;;;8.13;;
25359;SDS011;13311;51.386;0.016;2023-01-28T21:47:03;15.85;;;9.10;;
25359;SDS011;13311;51.386;0.016;2023-01-28T21:52:04;13.50;;;9.48;;
25359;SDS011;13311;51.386;0.016;2023-01-28T21:57:06;12.65;;;9.45;;
25359;SDS011;13311;51.386;0.016;2023-01-28T22:02:10;12.13;;;8.50;;
25359;SDS011;13311;51.386;0.016;2023-01-28T22:07:13;12.00;;;8.70;;
25359;SDS011;13311;51.386;0.016;2023-01-28T22:12:17;14.00;;;9.35;;
25359;SDS011;13311;51.386;0.016;2023-01-28T22:17:19;12.55;;;8.77;;
25359;SDS011;13311;51.386;0.016;2023-01-28T22:22:20;11.98;;;8.82;;
25359;SDS011;13311;51.386;0.016;2023-01-28T22:27:20;12.98;;;9.50;;
25359;SDS011;13311;51.386;0.016;2023-01-28T22:32:21;21.20;;;11.50;;
25359;SDS011;13311;51.386;0.016;2023-01-28T22:37:22;19.00;;;12.80;;
25359;SDS011;13311;51.386;0.016;2023-01-28T22:42:22;20.30;;;13.68;;
25359;SDS011;13311;51.386;0.016;2023-01-28T22:47:23;26.83;;;13.45;;
25359;SDS011;13311;51.386;0.016;2023-01-28T22:52:24;19.88;;;13.90;;
25359;SDS011;13311;51.386;0.016;2023-01-28T22:57:25;18.30;;;13.43;;
25359;SDS011;13311;51.386;0.016;2023-01-28T23:02:25;21.23;;;13.93;;
25359;SDS011;13311;51.386;0.016;2023-01-28T23:07:26;20.63;;;13.20;;
25359;SDS011;13311;51.386;0.016;2023-01-28T23:12:27;19.38;;;12.80;;
25359;SDS011;13311;51.386;0.016;2023-01-28T23:17:28;22.77;;;14.43;;
25359;SDS011;13311;51.386;0.016;2023-01-28T23:22:47;22.25;;;14.40;;
25359;SDS011;13311;51.386;0.016;2023-01-28T23:28:07;23.45;;;15.27;;
25359;SDS011;13311;51.386;0.016;2023-01-28T23:33:07;21.42;;;14.43;;
25359;SDS011;13311;51.386;0.016;2023-01-28T23:38:09;22.92;;;13.52;;
25359;SDS011;13311;51.386;0.016;2023-01-28T23:43:10;22.88;;;14.82;;
25359;SDS011;13311;51.386;0.016;2023-01-28T23:48:11;22.17;;;14.13;;
25359;SDS011;13311;51.386;0.016;2023-01-28T23:53:12;20.63;;;14.50;;
25359;SDS011;13311;51.386;0.016;2023-01-28T23:58:13;17.40;;;13.00;;
